Bowling Green Warren County Regional Airport
KBWG : now visible

Airfield :











YOU CAN JOIN US ON...

 
LOGIN :

Register | Disclaimer

   EN    FR    IT 

 









Legend :    VFR   Marginal VFR   IFR   Intensive IFR   Very Intensive IFR
Visi :
Ceiling :
>= 8 km
>= 3000ft
5 to 8 km
1000 to 3000 ft
1500m to 5 km
500 to 1000 ft
800 to 1500m
200 to 500 ft
< 800m
< 200 ft
Symbols :   Thunderstorms  Fog  Heavy snow  Heavy precipitations  Wind > 20 kt






- Airport Elevation : 547 ft


KBWG - Bowling Green Warren County Regional

CURRENT METAR :
  • 161310Z AUTO 00000KT 4SM BR OVC005 06/04 A3002 RMK AO2 LTG DSNT S T00610044

EXPIRED METARs :
  • 161253Z AUTO 33003KT 4SM BR OVC004 06/04 A3001 RMK AO2 SLP163 T00560044
  • 161153Z AUTO 00000KT 5SM BR OVC005 06/04 A3000 RMK AO2 SLP161 60009 70016 T00560039 10061 20050 53009
  • 161132Z AUTO 02003KT 5SM BR OVC005 06/04 A3000 RMK AO2 T00560039
  • 161053Z AUTO 00000KT 5SM BR OVC004 06/04 A2999 RMK AO2 RAE12 SLP157 P0000 T00560039

TAF KBWG
Valid from the 16 at 12:00 until the 17 at 12:00 UTC


161120Z 1612/1712 VRB04KT 4SM BR VCSH OVC004
FM161400 01003KT 3SM SHRA BR OVC004
FM161700 07006KT 2SM SHRA BR VCTS OVC004CB
FM170100 36007KT 3SM SHRA BR OVC003



MET'MAP, your aeronautical weather chart ! - Copyright ORBIFLY December 2007 - Disclaimer

ORBIFLY MET'MAP TEAM :

Programming & Development : Alexandra Zaïnal
Concept & original design : Baudouin d'Aumeries
Assistance for programming : Marc-Olivier Méhu
Technical & hardware support : Manuel Goepfert

Contact : metmap@orbifly.com




SOURCES & CREDITS :

   NOAA       Earth
Advisory